Galliano, Louisiana
Current Conditions -  °F | °C
As of 4:35 AM on Wednesday 22 Oct 2014 (Local Time) from KHUM Reporting Station
Clear Clear  
Wind Chill: 60°   Ceiling: Unl
Heat Index: 60°   Visibility: 7mi
Dew Point: 57°   Wind: 3mph
Humidity: 91%   Direction: 340°NNW
Pressure: 30.02"   Gusts: NA
Location:  29.44°N, 90.3°W
Report Text: KHUM 220935Z AUTO 34003KT 7SM CLR 15/14 A3002 RMK AO2 T01540140
Loading
Personal Weather Stations






























Interactive Weather Map
Tropical Storm Tracking
New forecast layout! Learn more

10-Day Weather Forecast

Advertisements
Track Severe Weather on mobile